createdAt,value
2023-01-11T00:03:44.995Z,94.30
2023-01-11T00:08:47.103Z,94.30
2023-01-11T00:13:49.203Z,94.30
2023-01-11T00:18:52.736Z,94.30
2023-01-11T00:23:54.888Z,94.40
2023-01-11T00:28:56.942Z,94.40
2023-01-11T00:34:00.455Z,94.40
2023-01-11T00:39:02.671Z,94.40
2023-01-11T00:44:05.757Z,94.40
2023-01-11T00:49:09.237Z,94.40
2023-01-11T00:54:12.492Z,94.40
2023-01-11T00:59:14.736Z,94.40
2023-01-11T01:04:18.281Z,94.50
2023-01-11T01:09:20.515Z,94.40
2023-01-11T01:14:22.895Z,94.40
2023-01-11T01:19:26.726Z,94.50
2023-01-11T01:24:29.688Z,94.50
2023-01-11T01:29:31.779Z,94.50
2023-01-11T01:34:35.340Z,94.60
2023-01-11T01:39:37.611Z,94.50
2023-01-11T01:44:57.173Z,94.60
2023-01-11T01:50:06.623Z,94.60
2023-01-11T01:55:12.880Z,94.60
2023-01-11T02:00:15.645Z,94.60
2023-01-11T02:05:19.513Z,94.60
2023-01-11T02:10:23.624Z,94.70
2023-01-11T02:15:26.136Z,94.70
2023-01-11T02:20:58.701Z,94.70
2023-01-11T02:26:46.603Z,94.80
2023-01-11T02:31:56.424Z,94.60
2023-01-11T02:37:16.232Z,94.70
2023-01-11T02:42:25.197Z,94.70
2023-01-11T02:47:36.685Z,94.70
2023-01-11T02:52:47.943Z,94.70
2023-01-11T02:57:53.645Z,94.60
2023-01-11T03:03:16.602Z,94.50
2023-01-11T03:08:59.898Z,94.50
2023-01-11T03:14:10.655Z,94.50
2023-01-11T03:19:25.557Z,94.50
2023-01-11T03:24:32.919Z,94.60
2023-01-11T03:29:37.317Z,94.60
2023-01-11T03:34:52.117Z,94.50
2023-01-11T03:39:59.759Z,94.60
2023-01-11T03:45:04.763Z,94.70
2023-01-11T03:50:12.133Z,94.60
2023-01-11T03:55:16.793Z,94.60
2023-01-11T04:00:20.816Z,94.60
2023-01-11T04:05:24.681Z,94.60
2023-01-11T04:10:27.028Z,95.00
2023-01-11T04:15:29.522Z,95.00
2023-01-11T04:20:34.865Z,94.60
2023-01-11T04:25:37.219Z,94.60
2023-01-11T04:30:39.548Z,94.60
2023-01-11T04:35:43.549Z,94.70
2023-01-11T04:40:47.818Z,94.70
2023-01-11T04:45:50.256Z,94.70
2023-01-11T04:50:54.166Z,94.70
2023-01-11T04:56:01.153Z,95.20
2023-01-11T05:01:10.002Z,94.80
2023-01-11T05:06:15.241Z,94.70
2023-01-11T05:11:33.486Z,94.80
2023-01-11T05:16:45.489Z,94.70
2023-01-11T05:22:09.221Z,94.70
2023-01-11T05:27:16.419Z,94.70
2023-01-11T05:32:21.204Z,94.60
2023-01-11T05:37:34.508Z,94.50
2023-01-11T05:42:54.411Z,94.50
2023-01-11T05:48:12.046Z,94.40
2023-01-11T05:58:44.853Z,94.40
2023-01-11T06:03:51.215Z,94.30
2023-01-11T06:09:04.046Z,94.30
2023-01-11T06:14:13.976Z,94.30
2023-01-11T06:19:20.869Z,94.30
2023-01-11T06:24:28.650Z,94.20
2023-01-11T06:29:56.378Z,94.20
2023-01-11T06:35:05.846Z,94.10
2023-01-11T06:40:21.262Z,94.10
2023-01-11T06:45:26.551Z,94.00
2023-01-11T06:50:35.014Z,94.10
2023-01-11T06:55:46.826Z,94.10
2023-01-11T07:00:58.522Z,94.10
2023-01-11T07:17:05.221Z,94.10
2023-01-11T07:22:29.726Z,94.00
2023-01-11T07:27:51.841Z,94.00
2023-01-11T07:33:03.704Z,94.00
2023-01-11T07:38:35.192Z,93.90
2023-01-11T07:43:50.980Z,93.90
2023-01-11T07:49:04.987Z,94.00
2023-01-11T07:54:19.127Z,94.00
2023-01-11T07:59:45.453Z,94.00
2023-01-11T08:10:43.787Z,94.10
2023-01-11T08:16:04.362Z,94.00
2023-01-11T08:21:39.297Z,94.00
2023-01-11T08:26:57.576Z,93.90
2023-01-11T08:32:36.421Z,94.00
2023-01-11T08:38:14.362Z,94.00
2023-01-11T08:43:34.443Z,93.90
2023-01-11T08:48:59.541Z,93.90
2023-01-11T08:54:27.549Z,93.90
2023-01-11T08:59:45.812Z,94.00
2023-01-11T09:05:20.448Z,94.00
2023-01-11T09:11:10.077Z,94.00
2023-01-11T09:16:28.420Z,93.80
2023-01-11T09:21:52.657Z,93.80
2023-01-11T09:27:11.080Z,93.80
2023-01-11T09:32:43.943Z,93.70
2023-01-11T09:37:57.625Z,93.60
2023-01-11T09:43:12.127Z,93.50
2023-01-11T09:48:54.614Z,93.60
2023-01-11T09:53:58.875Z,93.30
2023-01-11T09:59:27.599Z,93.40
2023-01-11T10:05:09.220Z,93.20
2023-01-11T10:18:31.914Z,93.00
2023-01-11T10:21:58.968Z,93.10
2023-01-11T10:27:17.021Z,93.10
2023-01-11T10:37:55.350Z,93.60
2023-01-11T10:43:04.746Z,93.70
2023-01-11T10:48:19.159Z,93.60
2023-01-11T10:53:35.400Z,94.10
2023-01-11T10:59:15.868Z,94.20
2023-01-11T11:04:51.759Z,93.80
2023-01-11T11:10:16.843Z,93.80
2023-01-11T11:15:32.285Z,93.30
2023-01-11T11:20:43.414Z,93.10
2023-01-11T11:26:13.236Z,92.80
2023-01-11T11:31:21.468Z,91.20
2023-01-11T11:36:26.258Z,91.90
2023-01-11T11:41:48.511Z,91.40
2023-01-11T11:47:17.513Z,90.00
2023-01-11T11:52:24.545Z,89.90
2023-01-11T12:03:03.177Z,89.10
2023-01-11T12:08:09.051Z,88.50
2023-01-11T12:13:34.779Z,88.00
2023-01-11T12:18:42.879Z,85.60
2023-01-11T12:24:10.109Z,86.10
2023-01-11T12:29:44.694Z,84.60
2023-01-11T12:35:09.005Z,82.70
2023-01-11T12:40:19.770Z,83.40
2023-01-11T12:45:34.716Z,86.30
2023-01-11T12:50:52.108Z,86.80
2023-01-11T12:56:19.763Z,86.80
2023-01-11T13:01:42.647Z,85.90
2023-01-11T13:06:55.943Z,85.10
2023-01-11T13:12:04.966Z,85.10
2023-01-11T13:17:22.933Z,84.50
2023-01-11T13:22:30.845Z,83.50
2023-01-11T13:27:34.334Z,83.70
2023-01-11T13:32:41.820Z,83.40
2023-01-11T13:37:51.639Z,82.30
2023-01-11T13:42:58.543Z,81.00
2023-01-11T13:48:14.219Z,79.40
2023-01-11T13:53:25.972Z,79.50
2023-01-11T13:58:36.801Z,80.60
2023-01-11T14:03:50.171Z,81.60
2023-01-11T14:09:19.543Z,81.40
2023-01-11T14:14:39.888Z,81.00
2023-01-11T14:19:50.542Z,81.50
2023-01-11T14:25:00.760Z,81.70
2023-01-11T14:30:37.782Z,82.10
2023-01-11T14:35:59.853Z,82.40
2023-01-11T14:41:44.963Z,84.90
2023-01-11T14:47:11.181Z,83.50
2023-01-11T14:52:21.254Z,84.50
2023-01-11T14:57:38.591Z,84.80
2023-01-11T15:02:41.077Z,85.10
2023-01-11T15:07:50.678Z,85.00
2023-01-11T15:12:56.448Z,85.20
2023-01-11T15:17:59.012Z,85.20
2023-01-11T15:23:05.914Z,85.50
2023-01-11T15:28:34.762Z,85.50
2023-01-11T15:33:46.952Z,85.80
2023-01-11T15:38:58.569Z,86.00
2023-01-11T15:44:20.007Z,86.30
2023-01-11T15:50:07.866Z,86.70
2023-01-11T15:55:43.413Z,86.80
2023-01-11T16:01:05.687Z,87.00
2023-01-11T16:06:20.159Z,86.80
2023-01-11T16:11:28.730Z,87.00
2023-01-11T16:16:38.913Z,87.00
2023-01-11T16:21:43.898Z,86.70
2023-01-11T16:26:53.457Z,86.80
2023-01-11T16:31:59.672Z,86.70
2023-01-11T16:37:02.017Z,86.80
2023-01-11T16:42:06.627Z,86.70
2023-01-11T16:47:15.826Z,86.80
2023-01-11T16:52:57.705Z,87.10
2023-01-11T16:58:03.039Z,87.40
2023-01-11T17:03:23.227Z,87.60
2023-01-11T17:08:28.566Z,87.40
2023-01-11T17:14:16.782Z,87.60
2023-01-11T17:19:25.061Z,87.50
2023-01-11T17:24:28.577Z,87.60
2023-01-11T17:29:37.354Z,87.50
2023-01-11T17:34:43.710Z,87.30
2023-01-11T17:39:49.391Z,87.30
2023-01-11T17:44:56.671Z,87.70
2023-01-11T17:50:03.302Z,87.60
2023-01-11T17:55:15.923Z,87.50
2023-01-11T18:00:26.634Z,87.40
2023-01-11T18:05:43.772Z,87.40
2023-01-11T18:10:50.518Z,87.20
2023-01-11T18:16:05.225Z,87.70
2023-01-11T18:21:52.672Z,87.30
2023-01-11T18:27:27.769Z,87.30
2023-01-11T18:32:46.304Z,87.30
2023-01-11T18:37:52.413Z,87.60
2023-01-11T18:42:58.074Z,87.70
2023-01-11T18:48:06.048Z,87.80
2023-01-11T18:53:14.129Z,87.90
2023-01-11T18:58:17.326Z,87.60
2023-01-11T19:03:23.232Z,87.60
2023-01-11T19:08:43.897Z,87.50
2023-01-11T19:13:49.190Z,87.40
2023-01-11T19:18:58.154Z,87.50
2023-01-11T19:24:08.032Z,87.70
2023-01-11T19:34:33.964Z,87.80
2023-01-11T19:39:38.273Z,87.80
2023-01-11T19:44:42.870Z,87.80
2023-01-11T19:49:51.310Z,87.80
2023-01-11T19:54:55.805Z,87.80
2023-01-11T20:00:01.022Z,87.90
2023-01-11T20:05:07.045Z,87.80
2023-01-11T20:10:11.680Z,87.80
2023-01-11T20:15:14.167Z,87.70
2023-01-11T20:20:19.961Z,87.50
2023-01-11T20:25:27.477Z,87.60
2023-01-11T20:30:32.487Z,87.50
2023-01-11T20:35:37.575Z,87.30
2023-01-11T20:40:44.814Z,87.30
2023-01-11T20:45:59.498Z,87.20
2023-01-11T20:51:05.360Z,87.30
2023-01-11T20:56:15.047Z,87.40
2023-01-11T21:07:09.055Z,87.90
2023-01-11T21:21:29.360Z,88.70
2023-01-11T21:44:02.324Z,90.20
2023-01-11T21:49:04.828Z,90.30
2023-01-11T21:54:09.278Z,90.40
2023-01-11T21:59:13.332Z,90.60
2023-01-11T22:04:17.189Z,90.80
2023-01-11T22:09:19.495Z,90.90
2023-01-11T22:14:23.274Z,91.00
2023-01-11T22:19:25.411Z,91.10
2023-01-11T22:24:27.577Z,91.10
2023-01-11T22:29:31.161Z,91.10
2023-01-11T22:34:33.391Z,91.20
2023-01-11T22:39:35.558Z,91.20
2023-01-11T22:44:39.206Z,91.20
2023-01-11T22:49:41.363Z,91.10
2023-01-11T22:54:43.453Z,91.00
2023-01-11T22:59:46.995Z,90.80
2023-01-11T23:04:49.071Z,90.80
2023-01-11T23:09:51.824Z,90.80
2023-01-11T23:14:55.403Z,90.70
2023-01-11T23:19:57.548Z,90.60
2023-01-11T23:24:59.819Z,90.40
2023-01-11T23:30:03.586Z,90.10
2023-01-11T23:35:06.566Z,90.10
2023-01-11T23:40:10.487Z,90.10
2023-01-11T23:45:14.180Z,90.30
2023-01-11T23:50:16.512Z,90.50
2023-01-11T23:55:18.967Z,90.60
